Darstellungsparameter: Aktuell verwendete Einstellungen:
Skalierung der Graphiken ... ?
xyx+y,   Skalierungsfaktor:      Skalierung: Modus: x, Faktor: 1
Darstellungszeitraum ... ?
Vom - - bis: - -   Zeitraum: 16.11.2017 - 16.11.2017
Min/Max/Avg-Anzeige ... ?
Zeige MMA aktuell
Zeige MMA Monat
Zeige MMA alles
Zeige --A aktuell
Zeige --A Monat
Zeige --A alles
Keine MMA-Anzeige
MMA:
Average (ber die Originaldaten)
MMA-Basis: 16.11.2017 - 16.11.2017
Quicknavigation für Darstellung... ?
Tage:      1T, 2T, 3T, 5T -1T -2T -3T -5T +1T +2T +3T +5T
Wochen: 1W, 2W, 3W -1W -2W -3W +1W +2W +3W
Monate: 1M, 3M, 6M -1M -3M -6M +1M +3M +6M
Jahre:    1J, 3J, 5J, 10J -1J -3J -5J -10J +1J +3J +5J +10J
Nutze für die Darstellung ... ?
Originaldaten oder Mittelwerte auf ...
Stundenbasis Tagesbasis Wochenbasis
Monatsbasis Jahresbasis      Datenbasis: Original-Daten
Darstellen als:
Statistik (Auto) Statistik J:M      Darstellung:
Zur Graphik,    zurück zur Übersicht aller Sensoren.
 
Tabellarische Datenbersicht: ?
 
Sensor: Nr:Datum:Temp:Abs-Feuchte:Windchill:Wind:
Aussen-T/F 1 16-11-2017 00:00:00 5.5 C 6.04 g/m*3 5.5 C 0 km/h
2 16-11-2017 00:05:00 5.2 C 5.99 g/m*3 5.2 C 0 km/h
3 16-11-2017 00:10:00 5 C 5.91 g/m*3 5 C 0 km/h
4 16-11-2017 00:15:00 4.8 C 5.9 g/m*3 4.8 C 0 km/h
5 16-11-2017 00:20:00 4.7 C 5.93 g/m*3 4.7 C 3.2 km/h
6 16-11-2017 00:25:00 4.6 C 5.89 g/m*3 4.6 C 4.8 km/h
7 16-11-2017 00:30:00 4.4 C 5.88 g/m*3 4.4 C 4.8 km/h
8 16-11-2017 00:35:00 4.3 C 5.84 g/m*3 4.3 C 1.6 km/h
9 16-11-2017 00:40:00 4.2 C 5.8 g/m*3 4.2 C 1.6 km/h
10 16-11-2017 00:45:00 4.1 C 5.76 g/m*3 4.1 C 1.6 km/h
11 16-11-2017 00:50:00 3.9 C 5.75 g/m*3 3.9 C 3.2 km/h
12 16-11-2017 00:55:00 3.9 C 5.75 g/m*3 3.9 C 4.8 km/h
13 16-11-2017 01:00:00 3.8 C 5.77 g/m*3 3.8 C 3.2 km/h
14 16-11-2017 01:05:00 3.8 C 5.77 g/m*3 3.8 C 3.2 km/h
15 16-11-2017 01:10:00 3.8 C 5.77 g/m*3 3.8 C 3.2 km/h
16 16-11-2017 01:15:00 3.7 C 5.73 g/m*3 3.7 C 1.6 km/h
17 16-11-2017 01:20:00 3.6 C 5.69 g/m*3 3.6 C 0 km/h
18 16-11-2017 01:25:00 3.5 C 5.66 g/m*3 3.5 C 1.6 km/h
19 16-11-2017 01:30:00 3.4 C 5.62 g/m*3 3.4 C 0 km/h
20 16-11-2017 01:35:00 3.3 C 5.58 g/m*3 3.3 C 0 km/h
21 16-11-2017 01:40:00 3.3 C 5.58 g/m*3 3.3 C 0 km/h
22 16-11-2017 01:45:00 3.2 C 5.6 g/m*3 3.2 C 1.6 km/h
23 16-11-2017 01:50:00 3.2 C 5.6 g/m*3 3.2 C 0 km/h
24 16-11-2017 01:55:00 3.2 C 5.6 g/m*3 3.2 C 0 km/h
25 16-11-2017 02:00:00 3.1 C 5.57 g/m*3 3.1 C 0 km/h
Sensor: Nr:Datum:Temp:Abs-Feuchte:Windchill:Wind:
Aussen-T/F 26 16-11-2017 02:05:00 3 C 5.53 g/m*3 3 C 0 km/h
27 16-11-2017 02:10:00 2.9 C 5.49 g/m*3 2.9 C 0 km/h
28 16-11-2017 02:15:00 2.9 C 5.55 g/m*3 2.9 C 0 km/h
29 16-11-2017 02:20:00 2.8 C 5.51 g/m*3 2.8 C 0 km/h
30 16-11-2017 02:25:00 2.8 C 5.51 g/m*3 2.8 C 0 km/h
31 16-11-2017 02:30:00 2.7 C 5.48 g/m*3 2.7 C 0 km/h
32 16-11-2017 02:35:00 2.7 C 5.48 g/m*3 2.7 C 0 km/h
33 16-11-2017 02:40:00 2.7 C 5.48 g/m*3 2.7 C 0 km/h
34 16-11-2017 02:45:00 2.6 C 5.44 g/m*3 2.6 C 0 km/h
35 16-11-2017 02:50:00 2.6 C 5.44 g/m*3 2.6 C 0 km/h
36 16-11-2017 02:55:00 2.4 C 5.37 g/m*3 2.4 C 0 km/h
37 16-11-2017 03:00:00 2.4 C 5.37 g/m*3 2.4 C 0 km/h
38 16-11-2017 03:05:00 2.4 C 5.37 g/m*3 2.4 C 0 km/h
39 16-11-2017 03:10:00 2.3 C 5.33 g/m*3 2.3 C 0 km/h
40 16-11-2017 03:15:00 2.3 C 5.33 g/m*3 2.3 C 0 km/h
41 16-11-2017 03:20:00 2.2 C 5.35 g/m*3 2.2 C 0 km/h
42 16-11-2017 03:25:00 2.2 C 5.35 g/m*3 2.2 C 0 km/h
43 16-11-2017 03:30:00 2.2 C 5.35 g/m*3 2.2 C 0 km/h
44 16-11-2017 03:35:00 2.2 C 5.35 g/m*3 2.2 C 0 km/h
45 16-11-2017 03:40:00 2.1 C 5.31 g/m*3 2.1 C 0 km/h
46 16-11-2017 03:45:00 2.1 C 5.31 g/m*3 2.1 C 0 km/h
47 16-11-2017 03:50:00 2.1 C 5.31 g/m*3 2.1 C 0 km/h
48 16-11-2017 03:55:00 2.1 C 5.31 g/m*3 2.1 C 0 km/h
49 16-11-2017 04:00:00 2.1 C 5.31 g/m*3 2.1 C 0 km/h
50 16-11-2017 04:05:00 2 C 5.28 g/m*3 2 C 0 km/h
Sensor: Nr:Datum:Temp:Abs-Feuchte:Windchill:Wind:
Aussen-T/F 51 16-11-2017 04:10:00 1.9 C 5.24 g/m*3 1.9 C 0 km/h
52 16-11-2017 04:15:00 1.9 C 5.24 g/m*3 1.9 C 0 km/h
53 16-11-2017 04:20:00 1.8 C 5.21 g/m*3 1.8 C 0 km/h
54 16-11-2017 04:25:00 1.8 C 5.21 g/m*3 1.8 C 0 km/h
55 16-11-2017 04:30:00 1.7 C 5.17 g/m*3 1.7 C 0 km/h
56 16-11-2017 04:35:00 1.7 C 5.17 g/m*3 1.7 C 0 km/h
57 16-11-2017 04:40:00 1.7 C 5.17 g/m*3 1.7 C 0 km/h
58 16-11-2017 04:45:00 1.7 C 5.17 g/m*3 1.7 C 0 km/h
59 16-11-2017 04:50:00 1.8 C 5.21 g/m*3 1.8 C 0 km/h
60 16-11-2017 04:55:00 1.8 C 5.21 g/m*3 1.8 C 0 km/h
61 16-11-2017 05:00:00 1.9 C 5.3 g/m*3 1.9 C 0 km/h
62 16-11-2017 05:05:00 2 C 5.33 g/m*3 2 C 0 km/h
63 16-11-2017 05:10:00 2.1 C 5.37 g/m*3 2.1 C 0 km/h
64 16-11-2017 05:15:00 2.2 C 5.41 g/m*3 2.2 C 0 km/h
65 16-11-2017 05:20:00 2.2 C 5.41 g/m*3 2.2 C 0 km/h
66 16-11-2017 05:25:00 2.3 C 5.44 g/m*3 2.3 C 0 km/h
67 16-11-2017 05:30:00 2.4 C 5.48 g/m*3 2.4 C 0 km/h
68 16-11-2017 05:35:00 2.4 C 5.48 g/m*3 2.4 C 0 km/h
69 16-11-2017 05:40:00 2.5 C 5.52 g/m*3 2.5 C 0 km/h
70 16-11-2017 05:45:00 2.6 C 5.56 g/m*3 2.6 C 0 km/h
71 16-11-2017 05:50:00 2.7 C 5.59 g/m*3 2.7 C 0 km/h
72 16-11-2017 05:55:00 2.8 C 5.63 g/m*3 2.8 C 0 km/h
73 16-11-2017 06:00:00 2.8 C 5.63 g/m*3 2.8 C 0 km/h
74 16-11-2017 06:05:00 2.9 C 5.67 g/m*3 2.9 C 0 km/h
75 16-11-2017 06:10:00 3 C 5.71 g/m*3 3 C 0 km/h
Sensor: Nr:Datum:Temp:Abs-Feuchte:Windchill:Wind:
Aussen-T/F 76 16-11-2017 06:15:00 3.1 C 5.75 g/m*3 3.1 C 0 km/h
77 16-11-2017 06:20:00 3.2 C 5.79 g/m*3 3.2 C 0 km/h
78 16-11-2017 06:25:00 3.2 C 5.79 g/m*3 3.2 C 0 km/h
79 16-11-2017 06:30:00 3.3 C 5.82 g/m*3 3.3 C 0 km/h
80 16-11-2017 06:35:00 3.3 C 5.82 g/m*3 3.3 C 0 km/h
81 16-11-2017 06:40:00 3.3 C 5.82 g/m*3 3.3 C 0 km/h
82 16-11-2017 06:45:00 3.3 C 5.82 g/m*3 3.3 C 0 km/h
83 16-11-2017 06:50:00 3.4 C 5.86 g/m*3 3.4 C 0 km/h
84 16-11-2017 06:55:00 3.4 C 5.86 g/m*3 3.4 C 0 km/h
85 16-11-2017 07:00:00 3.5 C 5.9 g/m*3 3.5 C 0 km/h
86 16-11-2017 07:05:00 3.6 C 5.94 g/m*3 3.6 C 0 km/h
87 16-11-2017 07:10:00 3.6 C 5.94 g/m*3 3.6 C 0 km/h
88 16-11-2017 07:15:00 3.6 C 5.94 g/m*3 3.6 C 0 km/h
89 16-11-2017 07:20:00 3.6 C 5.94 g/m*3 3.6 C 0 km/h
90 16-11-2017 07:25:00 3.6 C 5.94 g/m*3 3.6 C 0 km/h
91 16-11-2017 07:30:00 3.7 C 5.98 g/m*3 3.7 C 0 km/h
92 16-11-2017 07:35:00 3.7 C 5.98 g/m*3 3.7 C 0 km/h
93 16-11-2017 07:40:00 3.7 C 5.98 g/m*3 3.7 C 0 km/h
94 16-11-2017 07:45:00 3.7 C 5.98 g/m*3 3.7 C 0 km/h
95 16-11-2017 07:50:00 3.8 C 6.02 g/m*3 3.8 C 0 km/h
96 16-11-2017 07:55:00 3.8 C 6.02 g/m*3 3.8 C 0 km/h
97 16-11-2017 08:00:00 3.8 C 6.02 g/m*3 3.8 C 0 km/h
98 16-11-2017 08:05:00 3.8 C 6.02 g/m*3 3.8 C 0 km/h
99 16-11-2017 08:10:00 3.9 C 6.06 g/m*3 3.9 C 0 km/h
100 16-11-2017 08:15:00 3.9 C 6.06 g/m*3 3.9 C 0 km/h
Sensor: Nr:Datum:Temp:Abs-Feuchte:Windchill:Wind:
Aussen-T/F 101 16-11-2017 08:20:00 3.9 C 6.06 g/m*3 3.9 C 0 km/h
102 16-11-2017 08:25:00 3.9 C 6.06 g/m*3 3.9 C 0 km/h
103 16-11-2017 08:30:00 4 C 6.1 g/m*3 4 C 0 km/h
104 16-11-2017 08:35:00 4.1 C 6.14 g/m*3 4.1 C 0 km/h
105 16-11-2017 08:40:00 4.1 C 6.14 g/m*3 4.1 C 1.6 km/h
106 16-11-2017 08:45:00 4.1 C 6.14 g/m*3 4.1 C 0 km/h
107 16-11-2017 08:50:00 4.2 C 6.19 g/m*3 4.2 C 0 km/h
108 16-11-2017 08:55:00 4.3 C 6.23 g/m*3 4.3 C 0 km/h
109 16-11-2017 09:00:00 4.3 C 6.23 g/m*3 4.3 C 0 km/h
110 16-11-2017 09:05:00 4.4 C 6.33 g/m*3 4.4 C 0 km/h
111 16-11-2017 09:10:00 4.5 C 6.31 g/m*3 4.5 C 0 km/h
112 16-11-2017 09:15:00 4.6 C 6.35 g/m*3 4.6 C 0 km/h
113 16-11-2017 09:20:00 4.6 C 6.35 g/m*3 4.6 C 0 km/h
114 16-11-2017 09:25:00 4.6 C 6.35 g/m*3 4.6 C 0 km/h
115 16-11-2017 09:30:00 4.7 C 6.39 g/m*3 4.7 C 1.6 km/h
116 16-11-2017 09:35:00 4.7 C 6.39 g/m*3 4.7 C 0 km/h
117 16-11-2017 09:40:00 4.8 C 6.44 g/m*3 4.8 C 0 km/h
118 16-11-2017 09:45:00 4.8 C 6.44 g/m*3 4.8 C 4.8 km/h
119 16-11-2017 09:50:00 4.9 C 6.48 g/m*3 4.9 C 1.6 km/h
120 16-11-2017 09:55:00 4.9 C 6.48 g/m*3 4.9 C 4.8 km/h
121 16-11-2017 10:00:00 5 C 6.46 g/m*3 5 C 0 km/h
122 16-11-2017 10:05:00 5 C 6.46 g/m*3 5 C 1.6 km/h
123 16-11-2017 10:10:00 5.1 C 6.5 g/m*3 5.1 C 0 km/h
124 16-11-2017 10:15:00 5.1 C 6.5 g/m*3 5.1 C 0 km/h
125 16-11-2017 10:20:00 5.2 C 6.54 g/m*3 5.2 C 1.6 km/h
Sensor: Nr:Datum:Temp:Abs-Feuchte:Windchill:Wind:
Aussen-T/F 126 16-11-2017 10:25:00 5.2 C 6.54 g/m*3 5.2 C 1.6 km/h
127 16-11-2017 10:30:00 5.2 C 6.47 g/m*3 5.2 C 1.6 km/h
128 16-11-2017 10:35:00 5.3 C 6.52 g/m*3 5.3 C 0 km/h
129 16-11-2017 10:40:00 5.4 C 6.56 g/m*3 5.4 C 0 km/h
130 16-11-2017 10:45:00 5.4 C 6.56 g/m*3 5.4 C 0 km/h
131 16-11-2017 10:50:00 5.5 C 6.53 g/m*3 5.5 C 3.2 km/h
132 16-11-2017 10:55:00 5.5 C 6.53 g/m*3 5.5 C 3.2 km/h
133 16-11-2017 11:00:00 5.6 C 6.57 g/m*3 5.6 C 3.2 km/h
134 16-11-2017 11:05:00 5.6 C 6.57 g/m*3 4.29 C 6.4 km/h
135 16-11-2017 11:10:00 5.6 C 6.57 g/m*3 5.6 C 1.6 km/h
136 16-11-2017 11:15:00 5.7 C 6.62 g/m*3 5.7 C 1.6 km/h
137 16-11-2017 11:20:00 5.6 C 6.5 g/m*3 5.6 C 1.6 km/h
138 16-11-2017 11:25:00 5.7 C 6.55 g/m*3 5.7 C 3.2 km/h
139 16-11-2017 11:30:00 5.7 C 6.55 g/m*3 5.7 C 3.2 km/h
140 16-11-2017 11:35:00 5.7 C 6.55 g/m*3 5.7 C 1.6 km/h
141 16-11-2017 11:40:00 5.7 C 6.55 g/m*3 5.7 C 1.6 km/h
142 16-11-2017 11:45:00 5.7 C 6.55 g/m*3 5.7 C 1.6 km/h
143 16-11-2017 11:50:00 5.8 C 6.52 g/m*3 5.8 C 4.8 km/h
144 16-11-2017 11:55:00 5.8 C 6.52 g/m*3 5.8 C 4.8 km/h
145 16-11-2017 12:00:00 5.9 C 6.56 g/m*3 4.17 C 8.1 km/h
146 16-11-2017 12:05:00 5.9 C 6.56 g/m*3 5.9 C 3.2 km/h
147 16-11-2017 12:10:00 6.1 C 6.65 g/m*3 6.1 C 0 km/h
148 16-11-2017 12:15:00 6.1 C 6.65 g/m*3 6.1 C 1.6 km/h
149 16-11-2017 12:20:00 6.2 C 6.69 g/m*3 6.2 C 1.6 km/h
150 16-11-2017 12:25:00 6.2 C 6.69 g/m*3 6.2 C 3.2 km/h
Sensor: Nr:Datum:Temp:Abs-Feuchte:Windchill:Wind:
Aussen-T/F 151 16-11-2017 12:30:00 6.2 C 6.62 g/m*3 6.2 C 1.6 km/h
152 16-11-2017 12:35:00 6.2 C 6.62 g/m*3 6.2 C 0 km/h
153 16-11-2017 12:40:00 6.3 C 6.74 g/m*3 6.3 C 0 km/h
154 16-11-2017 12:45:00 6.3 C 6.66 g/m*3 6.3 C 4.8 km/h
155 16-11-2017 12:50:00 6.3 C 6.66 g/m*3 5.1 C 6.4 km/h
156 16-11-2017 12:55:00 6.3 C 6.59 g/m*3 4.27 C 9.7 km/h
157 16-11-2017 13:00:00 6.3 C 6.59 g/m*3 4.27 C 9.7 km/h
158 16-11-2017 13:05:00 6.3 C 6.66 g/m*3 6.3 C 4.8 km/h
159 16-11-2017 13:10:00 6.3 C 6.66 g/m*3 6.3 C 4.8 km/h
160 16-11-2017 13:15:00 6.3 C 6.66 g/m*3 6.3 C 1.6 km/h
161 16-11-2017 13:20:00 6.3 C 6.66 g/m*3 6.3 C 1.6 km/h
162 16-11-2017 13:25:00 6.4 C 6.71 g/m*3 6.4 C 0 km/h
163 16-11-2017 13:30:00 6.4 C 6.71 g/m*3 6.4 C 1.6 km/h
164 16-11-2017 13:35:00 6.4 C 6.63 g/m*3 6.4 C 1.6 km/h
165 16-11-2017 13:40:00 6.4 C 6.63 g/m*3 6.4 C 1.6 km/h
166 16-11-2017 13:45:00 6.5 C 6.67 g/m*3 6.5 C 1.6 km/h
167 16-11-2017 13:50:00 6.6 C 6.72 g/m*3 6.6 C 1.6 km/h
168 16-11-2017 13:55:00 6.6 C 6.72 g/m*3 6.6 C 3.2 km/h
169 16-11-2017 14:00:00 6.7 C 6.76 g/m*3 6.7 C 0 km/h
170 16-11-2017 14:05:00 6.7 C 6.76 g/m*3 6.7 C 1.6 km/h
171 16-11-2017 14:10:00 6.7 C 6.69 g/m*3 6.7 C 0 km/h
172 16-11-2017 14:15:00 6.7 C 6.76 g/m*3 6.7 C 1.6 km/h
173 16-11-2017 14:20:00 6.8 C 6.73 g/m*3 6.8 C 1.6 km/h
174 16-11-2017 14:25:00 6.8 C 6.73 g/m*3 6.8 C 4.8 km/h
175 16-11-2017 14:30:00 6.8 C 6.73 g/m*3 6.8 C 4.8 km/h
Sensor: Nr:Datum:Temp:Abs-Feuchte:Windchill:Wind:
Aussen-T/F 176 16-11-2017 14:35:00 6.8 C 6.73 g/m*3 6.8 C 4.8 km/h
177 16-11-2017 14:40:00 6.8 C 6.73 g/m*3 6.8 C 4.8 km/h
178 16-11-2017 14:45:00 6.8 C 6.73 g/m*3 6.8 C 3.2 km/h
179 16-11-2017 14:50:00 6.8 C 6.81 g/m*3 6.8 C 4.8 km/h
180 16-11-2017 14:55:00 6.8 C 6.73 g/m*3 6.8 C 3.2 km/h
181 16-11-2017 15:00:00 6.8 C 6.73 g/m*3 6.8 C 4.8 km/h
182 16-11-2017 15:05:00 6.7 C 6.69 g/m*3 6.7 C 3.2 km/h
183 16-11-2017 15:10:00 6.7 C 6.69 g/m*3 6.7 C 3.2 km/h
184 16-11-2017 15:15:00 6.7 C 6.76 g/m*3 6.7 C 1.6 km/h
185 16-11-2017 15:20:00 6.6 C 6.72 g/m*3 6.6 C 1.6 km/h
186 16-11-2017 15:25:00 6.6 C 6.72 g/m*3 6.6 C 1.6 km/h
187 16-11-2017 15:30:00 6.6 C 6.72 g/m*3 6.6 C 0 km/h
188 16-11-2017 15:35:00 6.6 C 6.72 g/m*3 6.6 C 1.6 km/h
189 16-11-2017 15:40:00 6.5 C 6.67 g/m*3 6.5 C 0 km/h
190 16-11-2017 15:45:00 6.6 C 6.72 g/m*3 6.6 C 0 km/h
191 16-11-2017 15:50:00 6.6 C 6.79 g/m*3 6.6 C 0 km/h
192 16-11-2017 15:55:00 6.6 C 6.72 g/m*3 6.6 C 1.6 km/h
193 16-11-2017 16:00:00 6.6 C 6.79 g/m*3 6.6 C 1.6 km/h
194 16-11-2017 16:05:00 6.6 C 6.79 g/m*3 6.6 C 0 km/h
195 16-11-2017 16:10:00 6.7 C 6.84 g/m*3 6.7 C 0 km/h
196 16-11-2017 16:15:00 6.6 C 6.79 g/m*3 6.6 C 3.2 km/h
197 16-11-2017 16:20:00 6.6 C 6.72 g/m*3 6.6 C 1.6 km/h
198 16-11-2017 16:25:00 6.6 C 6.79 g/m*3 6.6 C 0 km/h
199 16-11-2017 16:30:00 6.6 C 6.79 g/m*3 6.6 C 0 km/h
200 16-11-2017 16:35:00 6.6 C 6.79 g/m*3 6.6 C 3.2 km/h
Sensor: Nr:Datum:Temp:Abs-Feuchte:Windchill:Wind:
Aussen-T/F 201 16-11-2017 16:40:00 6.5 C 6.75 g/m*3 6.5 C 3.2 km/h
202 16-11-2017 16:45:00 6.4 C 6.71 g/m*3 6.4 C 0 km/h
203 16-11-2017 16:50:00 6.4 C 6.71 g/m*3 6.4 C 0 km/h
204 16-11-2017 16:55:00 6.3 C 6.66 g/m*3 6.3 C 0 km/h
205 16-11-2017 17:00:00 6.3 C 6.66 g/m*3 6.3 C 0 km/h
206 16-11-2017 17:05:00 6.2 C 6.62 g/m*3 6.2 C 0 km/h
207 16-11-2017 17:10:00 6.2 C 6.62 g/m*3 6.2 C 0 km/h
208 16-11-2017 17:15:00 6.1 C 6.58 g/m*3 6.1 C 0 km/h
209 16-11-2017 17:20:00 6 C 6.6 g/m*3 6 C 0 km/h
210 16-11-2017 17:25:00 5.9 C 6.56 g/m*3 5.9 C 0 km/h
211 16-11-2017 17:30:00 5.8 C 6.52 g/m*3 5.8 C 0 km/h
212 16-11-2017 17:35:00 5.8 C 6.52 g/m*3 5.8 C 0 km/h
213 16-11-2017 17:40:00 5.7 C 6.48 g/m*3 5.7 C 0 km/h
214 16-11-2017 17:45:00 5.7 C 6.55 g/m*3 5.7 C 0 km/h
215 16-11-2017 17:50:00 5.6 C 6.5 g/m*3 5.6 C 0 km/h
216 16-11-2017 17:55:00 5.6 C 6.5 g/m*3 5.6 C 0 km/h
217 16-11-2017 18:00:00 5.6 C 6.5 g/m*3 5.6 C 0 km/h
218 16-11-2017 18:05:00 5.6 C 6.5 g/m*3 5.6 C 0 km/h
219 16-11-2017 18:10:00 5.6 C 6.57 g/m*3 5.6 C 0 km/h
220 16-11-2017 18:15:00 5.6 C 6.57 g/m*3 5.6 C 4.8 km/h
221 16-11-2017 18:20:00 5.6 C 6.57 g/m*3 5.6 C 1.6 km/h
222 16-11-2017 18:25:00 5.7 C 6.62 g/m*3 5.7 C 0 km/h
223 16-11-2017 18:30:00 5.6 C 6.5 g/m*3 5.6 C 0 km/h
224 16-11-2017 18:35:00 5.6 C 6.5 g/m*3 5.6 C 0 km/h
225 16-11-2017 18:40:00 5.5 C 6.46 g/m*3 5.5 C 0 km/h
Sensor: Nr:Datum:Temp:Abs-Feuchte:Windchill:Wind:
Aussen-T/F 226 16-11-2017 18:45:00 5.4 C 6.49 g/m*3 5.4 C 0 km/h
227 16-11-2017 18:50:00 5.4 C 6.49 g/m*3 5.4 C 0 km/h
228 16-11-2017 18:55:00 5.4 C 6.49 g/m*3 5.4 C 0 km/h
229 16-11-2017 19:00:00 5.4 C 6.49 g/m*3 5.4 C 0 km/h
230 16-11-2017 19:05:00 5.4 C 6.49 g/m*3 5.4 C 0 km/h
231 16-11-2017 19:10:00 5.4 C 6.49 g/m*3 5.4 C 0 km/h
232 16-11-2017 19:15:00 5.4 C 6.49 g/m*3 5.4 C 0 km/h
233 16-11-2017 19:20:00 5.5 C 6.53 g/m*3 5.5 C 0 km/h
234 16-11-2017 19:25:00 5.5 C 6.6 g/m*3 5.5 C 0 km/h
235 16-11-2017 19:30:00 5.6 C 6.65 g/m*3 5.6 C 0 km/h
236 16-11-2017 19:35:00 5.6 C 6.65 g/m*3 5.6 C 0 km/h
237 16-11-2017 19:40:00 5.6 C 6.65 g/m*3 5.6 C 0 km/h
238 16-11-2017 19:45:00 5.6 C 6.65 g/m*3 5.6 C 0 km/h
239 16-11-2017 19:50:00 5.6 C 6.65 g/m*3 5.6 C 0 km/h
240 16-11-2017 19:55:00 5.6 C 6.65 g/m*3 5.6 C 0 km/h
241 16-11-2017 20:00:00 5.6 C 6.65 g/m*3 5.6 C 0 km/h
242 16-11-2017 20:05:00 5.6 C 6.65 g/m*3 5.6 C 0 km/h
243 16-11-2017 20:10:00 5.7 C 6.69 g/m*3 5.7 C 0 km/h
244 16-11-2017 20:15:00 5.7 C 6.69 g/m*3 5.7 C 0 km/h
245 16-11-2017 20:20:00 5.7 C 6.69 g/m*3 5.7 C 0 km/h
246 16-11-2017 20:25:00 5.7 C 6.69 g/m*3 5.7 C 0 km/h
247 16-11-2017 20:30:00 5.7 C 6.69 g/m*3 5.7 C 0 km/h
248 16-11-2017 20:35:00 5.7 C 6.69 g/m*3 5.7 C 0 km/h
249 16-11-2017 20:40:00 5.8 C 6.73 g/m*3 5.8 C 0 km/h
250 16-11-2017 20:45:00 5.8 C 6.73 g/m*3 5.8 C 0 km/h
Sensor: Nr:Datum:Temp:Abs-Feuchte:Windchill:Wind:
Aussen-T/F 251 16-11-2017 20:50:00 5.8 C 6.73 g/m*3 5.8 C 0 km/h
252 16-11-2017 20:55:00 5.8 C 6.81 g/m*3 5.8 C 0 km/h
253 16-11-2017 21:00:00 5.8 C 6.81 g/m*3 5.8 C 0 km/h
254 16-11-2017 21:05:00 5.9 C 6.85 g/m*3 5.9 C 0 km/h
255 16-11-2017 21:10:00 5.9 C 6.85 g/m*3 5.9 C 0 km/h
256 16-11-2017 21:15:00 5.9 C 6.85 g/m*3 5.9 C 0 km/h
257 16-11-2017 21:20:00 5.9 C 6.85 g/m*3 5.9 C 0 km/h
258 16-11-2017 21:25:00 5.9 C 6.85 g/m*3 5.9 C 1.6 km/h
259 16-11-2017 21:30:00 5.9 C 6.85 g/m*3 5.9 C 3.2 km/h
260 16-11-2017 21:35:00 5.9 C 6.85 g/m*3 5.9 C 0 km/h
261 16-11-2017 21:40:00 5.9 C 6.85 g/m*3 5.9 C 0 km/h
262 16-11-2017 21:45:00 5.8 C 6.81 g/m*3 5.8 C 0 km/h
263 16-11-2017 21:50:00 5.8 C 6.81 g/m*3 5.8 C 0 km/h
264 16-11-2017 21:55:00 5.8 C 6.81 g/m*3 5.8 C 3.2 km/h
265 16-11-2017 22:00:00 5.8 C 6.81 g/m*3 5.8 C 0 km/h
266 16-11-2017 22:05:00 5.8 C 6.81 g/m*3 5.8 C 0 km/h
267 16-11-2017 22:10:00 5.8 C 6.81 g/m*3 5.8 C 0 km/h
268 16-11-2017 22:15:00 5.8 C 6.81 g/m*3 5.8 C 0 km/h
269 16-11-2017 22:20:00 5.8 C 6.81 g/m*3 5.8 C 0 km/h
270 16-11-2017 22:25:00 5.8 C 6.81 g/m*3 5.8 C 0 km/h
271 16-11-2017 22:30:00 5.8 C 6.81 g/m*3 5.8 C 0 km/h
272 16-11-2017 22:35:00 5.8 C 6.81 g/m*3 5.8 C 0 km/h
273 16-11-2017 22:40:00 5.8 C 6.81 g/m*3 5.8 C 0 km/h
274 16-11-2017 22:45:00 5.8 C 6.81 g/m*3 5.8 C 0 km/h
275 16-11-2017 22:50:00 5.8 C 6.81 g/m*3 5.8 C 0 km/h
Sensor: Nr:Datum:Temp:Abs-Feuchte:Windchill:Wind:
Aussen-T/F 276 16-11-2017 22:55:00 5.8 C 6.81 g/m*3 5.8 C 0 km/h
277 16-11-2017 23:00:00 5.8 C 6.81 g/m*3 5.8 C 0 km/h
278 16-11-2017 23:05:00 5.8 C 6.88 g/m*3 5.8 C 0 km/h
279 16-11-2017 23:10:00 5.8 C 6.88 g/m*3 5.8 C 0 km/h
280 16-11-2017 23:15:00 5.8 C 6.88 g/m*3 5.8 C 0 km/h
281 16-11-2017 23:20:00 5.7 C 6.83 g/m*3 5.7 C 0 km/h
282 16-11-2017 23:25:00 5.7 C 6.83 g/m*3 5.7 C 0 km/h
283 16-11-2017 23:30:00 5.7 C 6.83 g/m*3 5.7 C 0 km/h
284 16-11-2017 23:35:00 5.7 C 6.83 g/m*3 5.7 C 0 km/h
285 16-11-2017 23:40:00 5.8 C 6.88 g/m*3 5.8 C 0 km/h
286 16-11-2017 23:45:00 5.7 C 6.83 g/m*3 5.7 C 0 km/h
287 16-11-2017 23:50:00 5.7 C 6.83 g/m*3 5.7 C 0 km/h
288 16-11-2017 23:55:00 5.7 C 6.83 g/m*3 5.7 C 0 km/h

Legende:
   Min
   Max


Maximal/Minimal-Werte vom 16.11.2017 - 16.11.2017

Sensor Min Max Avg
Temp
(Aussen-T/F)
1.7 °C
16-11-2017  04:30:00
6.8 °C
16-11-2017  14:20:00
4.84 °C
Abs-Feuchte
(Aussen-T/F)
5.17 g/m*3
16-11-2017  04:30:00
6.88 g/m*3
16-11-2017  23:05:00
6.26 g/m*3
Windchill
(Aussen-T/F)
1.7 C
16-11-2017  04:30:00
6.8 C
16-11-2017  14:20:00
4.8 C

Die Daten stammen von einer Davis Vantage Pro 2 Wetter-Station und werden unter Linux mit der Software wview2wettercgi und aufbereitet. Alle Angaben erfolgen ohne Gewähr für ihre Vollständigkeit oder Richtigkeit.
Kontakt: Rainer Krienke krienke@uni-koblenz.de . Meine Webseiten an der Uni Koblenz oder privat.
Version: $Revision: 0.78 $